Time;durP1;ratioP1;P1;durP2;ratioP2;P2;SDS_P1;SDS_P2;PMS_P1;PMS_P2;Temp;Humidity;BMP_temperature;BMP_pressure;BME280_temperature;BME280_humidity;BME280_pressure;Samples;Min_cycle;Max_cycle;Signal;HPM_P1;HPM_P2
2023/06/24 00:01:38;;;;;;;26.10;16.80;;;;;;;;;;4914917;28;20039;-80
2023/06/24 00:04:06;;;;;;;22.80;15.95;;;;;;;;;;4934710;28;20190;-79
2023/06/24 00:06:31;;;;;;;22.70;15.68;;;;;;;;;;4917987;28;20445;-79
2023/06/24 00:09:00;;;;;;;22.17;15.20;;;;;;;;;;4916500;28;20044;-80
2023/06/24 00:11:29;;;;;;;24.65;15.85;;;;;;;;;;4920795;28;20044;-80
2023/06/24 00:13:55;;;;;;;23.83;16.83;;;;;;;;;;4921273;28;20476;-80
2023/06/24 00:16:27;;;;;;;26.42;16.80;;;;;;;;;;4916578;28;20046;-80
2023/06/24 00:18:58;;;;;;;26.75;17.20;;;;;;;;;;4919183;28;20047;-79
2023/06/24 00:21:29;;;;;;;28.77;19.05;;;;;;;;;;4911564;29;20031;-80
2023/06/24 00:23:58;;;;;;;24.80;16.75;;;;;;;;;;4892931;28;20040;-80
2023/06/24 00:26:25;;;;;;;25.50;17.25;;;;;;;;;;4919819;28;20039;-80
2023/06/24 00:28:51;;;;;;;28.45;19.08;;;;;;;;;;4902282;28;20046;-80
2023/06/24 00:31:16;;;;;;;26.52;18.48;;;;;;;;;;4927226;28;20047;-80
2023/06/24 00:33:42;;;;;;;25.38;17.45;;;;;;;;;;4917181;28;20043;-79
2023/06/24 00:36:11;;;;;;;26.60;17.88;;;;;;;;;;4935272;28;20558;-80
2023/06/24 00:38:39;;;;;;;26.55;18.35;;;;;;;;;;4915753;28;20095;-79
2023/06/24 00:41:06;;;;;;;26.40;17.70;;;;;;;;;;4917869;28;20042;-80
2023/06/24 00:43:34;;;;;;;24.92;18.40;;;;;;;;;;4904818;28;20094;-79
2023/06/24 00:46:00;;;;;;;27.85;18.40;;;;;;;;;;4933168;28;20519;-79
2023/06/24 00:48:25;;;;;;;28.30;18.92;;;;;;;;;;4919578;28;20069;-80
2023/06/24 00:50:51;;;;;;;27.40;18.02;;;;;;;;;;4908349;28;20064;-80
2023/06/24 00:53:17;;;;;;;28.55;18.63;;;;;;;;;;4916654;29;20044;-79
2023/06/24 00:55:45;;;;;;;28.15;19.30;;;;;;;;;;4934343;28;20042;-79
2023/06/24 00:58:15;;;;;;;29.08;18.70;;;;;;;;;;4920300;28;22184;-79
2023/06/24 01:00:41;;;;;;;25.13;17.30;;;;;;;;;;4948602;28;20111;-80
2023/06/24 01:03:06;;;;;;;28.10;18.55;;;;;;;;;;4921020;28;20287;-80
2023/06/24 01:05:35;;;;;;;30.25;19.13;;;;;;;;;;4916263;28;20042;-80
2023/06/24 01:08:00;;;;;;;27.42;18.50;;;;;;;;;;4913983;28;20109;-80
2023/06/24 01:10:26;;;;;;;27.42;17.67;;;;;;;;;;4918638;28;20032;-80
2023/06/24 01:12:51;;;;;;;26.55;18.33;;;;;;;;;;4920387;28;20047;-79
2023/06/24 01:15:19;;;;;;;26.33;18.20;;;;;;;;;;4916508;29;20116;-80
2023/06/24 01:18:27;;;;;;;25.60;17.98;;;;;;;;;;4918326;28;20047;-79
2023/06/24 01:20:58;;;;;;;29.25;18.33;;;;;;;;;;4945756;28;20487;-80
2023/06/24 01:23:55;;;;;;;28.50;18.55;;;;;;;;;;4912230;28;20062;-80
2023/06/24 01:26:35;;;;;;;27.88;18.83;;;;;;;;;;4933268;28;20028;-80
2023/06/24 01:29:31;;;;;;;27.15;18.52;;;;;;;;;;4932321;28;20036;-80
2023/06/24 01:32:05;;;;;;;26.75;17.92;;;;;;;;;;4918648;28;20510;-80
2023/06/24 01:35:13;;;;;;;25.90;18.02;;;;;;;;;;4920363;28;20094;-80
2023/06/24 01:37:44;;;;;;;24.75;17.52;;;;;;;;;;4871436;29;20045;-80
2023/06/24 01:40:12;;;;;;;27.42;18.10;;;;;;;;;;4845602;29;20505;-80
2023/06/24 01:42:40;;;;;;;26.25;18.73;;;;;;;;;;4871254;29;20121;-79
2023/06/24 01:45:12;;;;;;;26.17;18.25;;;;;;;;;;4857626;29;20527;-80
2023/06/24 01:47:38;;;;;;;27.80;18.65;;;;;;;;;;4872167;29;20047;-79
2023/06/24 01:50:05;;;;;;;29.70;17.80;;;;;;;;;;4879361;29;20048;-80
2023/06/24 01:52:32;;;;;;;25.00;17.50;;;;;;;;;;4872696;29;20497;-80
2023/06/24 01:54:59;;;;;;;24.17;17.35;;;;;;;;;;4877493;29;20128;-80
2023/06/24 01:57:24;;;;;;;25.67;17.90;;;;;;;;;;4858588;29;20048;-80
2023/06/24 01:59:52;;;;;;;24.63;17.25;;;;;;;;;;4882335;29;20037;-79
2023/06/24 02:02:20;;;;;;;25.58;17.73;;;;;;;;;;4859022;29;20040;-80
2023/06/24 02:04:45;;;;;;;;;;;;;;;;;;4863544;29;20462;-80
2023/06/24 02:07:11;;;;;;;23.98;17.00;;;;;;;;;;4866843;29;19972;-80
2023/06/24 02:09:38;;;;;;;23.52;16.45;;;;;;;;;;4917333;28;20043;-79
2023/06/24 02:12:04;;;;;;;21.48;15.50;;;;;;;;;;4916938;28;20381;-79
2023/06/24 02:14:30;;;;;;;23.88;15.68;;;;;;;;;;4918771;28;20376;-79
2023/06/24 02:16:58;;;;;;;21.00;15.00;;;;;;;;;;4916639;28;20051;-80
2023/06/24 02:19:29;;;;;;;;;;;;;;;;;;4908729;28;20873;-80
2023/06/24 02:21:56;;;;;;;21.38;14.00;;;;;;;;;;4905941;28;20367;-80
2023/06/24 02:24:22;;;;;;;18.45;12.65;;;;;;;;;;4917317;28;20054;-80
2023/06/24 02:26:48;;;;;;;21.45;13.13;;;;;;;;;;4915388;29;20039;-80
2023/06/24 02:29:13;;;;;;;17.15;11.60;;;;;;;;;;4932480;29;20039;-80
2023/06/24 02:31:39;;;;;;;14.00;10.35;;;;;;;;;;4913226;28;20958;-80
2023/06/24 02:34:09;;;;;;;14.95;10.70;;;;;;;;;;4923764;29;20503;-80
2023/06/24 02:36:34;;;;;;;17.17;10.68;;;;;;;;;;4925024;28;20036;-80
2023/06/24 02:39:00;;;;;;;16.02;10.48;;;;;;;;;;4914471;28;20106;-80
2023/06/24 02:41:25;;;;;;;14.88;10.73;;;;;;;;;;4915961;28;20042;-80
2023/06/24 02:43:51;;;;;;;14.80;9.88;;;;;;;;;;4914263;29;20127;-81
2023/06/24 02:46:17;;;;;;;14.75;9.95;;;;;;;;;;4908590;28;20039;-80
2023/06/24 02:48:42;;;;;;;15.68;10.35;;;;;;;;;;4914804;28;20031;-80
2023/06/24 02:51:09;;;;;;;11.98;9.13;;;;;;;;;;4930148;28;20460;-80
2023/06/24 02:53:37;;;;;;;14.27;10.23;;;;;;;;;;4915229;28;20122;-80
2023/06/24 02:56:03;;;;;;;12.68;9.18;;;;;;;;;;4930154;28;20039;-81
2023/06/24 02:58:31;;;;;;;13.98;9.65;;;;;;;;;;4912760;28;20074;-79
2023/06/24 03:01:03;;;;;;;;;;;;;;;;;;4932537;28;20040;-79
2023/06/24 03:03:28;;;;;;;14.27;9.65;;;;;;;;;;4902710;28;20620;-79
2023/06/24 03:05:56;;;;;;;13.45;10.02;;;;;;;;;;4914012;28;20043;-79
2023/06/24 03:08:24;;;;;;;14.80;9.48;;;;;;;;;;4910912;28;20099;-79
2023/06/24 03:10:56;;;;;;;14.88;9.93;;;;;;;;;;4930813;28;20436;-79
2023/06/24 03:13:22;;;;;;;13.82;9.68;;;;;;;;;;4930328;28;20043;-79
2023/06/24 03:15:48;;;;;;;15.65;10.15;;;;;;;;;;4929994;28;20656;-79
2023/06/24 03:18:13;;;;;;;15.30;10.23;;;;;;;;;;4931435;28;20099;-79
2023/06/24 03:20:41;;;;;;;15.50;10.40;;;;;;;;;;4911420;28;20800;-79
2023/06/24 03:23:07;;;;;;;13.55;9.95;;;;;;;;;;4911260;28;20040;-79
2023/06/24 03:25:33;;;;;;;14.90;9.75;;;;;;;;;;4930510;28;20050;-79
2023/06/24 03:28:03;;;;;;;27.27;10.77;;;;;;;;;;4912701;28;20448;-79
2023/06/24 03:30:29;;;;;;;13.63;9.98;;;;;;;;;;4916375;28;20043;-79
2023/06/24 03:32:55;;;;;;;16.63;10.05;;;;;;;;;;4930938;28;20051;-79
2023/06/24 03:35:22;;;;;;;14.70;10.20;;;;;;;;;;4919329;28;20103;-79
2023/06/24 03:37:47;;;;;;;16.38;10.77;;;;;;;;;;4931448;29;20044;-79
2023/06/24 03:40:13;;;;;;;13.55;9.77;;;;;;;;;;4912069;28;20042;-79
2023/06/24 03:42:39;;;;;;;13.43;10.15;;;;;;;;;;4915278;28;20038;-79
2023/06/24 03:45:04;;;;;;;14.18;9.57;;;;;;;;;;4916328;28;20046;-79
2023/06/24 03:47:30;;;;;;;17.42;10.05;;;;;;;;;;4899520;28;20050;-79
2023/06/24 03:49:55;;;;;;;14.80;10.50;;;;;;;;;;4916763;28;20407;-80
2023/06/24 03:52:20;;;;;;;17.42;10.60;;;;;;;;;;4915563;29;20043;-79
2023/06/24 03:54:46;;;;;;;17.73;10.75;;;;;;;;;;4909179;29;20047;-79
2023/06/24 03:57:12;;;;;;;13.98;9.90;;;;;;;;;;4900932;28;20053;-79
2023/06/24 03:59:37;;;;;;;14.65;9.82;;;;;;;;;;4920824;28;20386;-79
2023/06/24 04:02:07;;;;;;;15.18;10.15;;;;;;;;;;4920992;28;20031;-79
2023/06/24 04:04:33;;;;;;;15.88;10.13;;;;;;;;;;4912155;28;20574;-79
2023/06/24 04:06:58;;;;;;;14.70;9.35;;;;;;;;;;4935461;28;20071;-79
2023/06/24 04:09:26;;;;;;;15.63;10.13;;;;;;;;;;4935053;28;20515;-79
2023/06/24 04:11:52;;;;;;;16.90;9.80;;;;;;;;;;4908469;28;20588;-79
2023/06/24 04:14:20;;;;;;;15.38;9.35;;;;;;;;;;4920667;29;20043;-79
2023/06/24 04:16:45;;;;;;;14.32;9.50;;;;;;;;;;4916736;29;20400;-79
2023/06/24 04:19:11;;;;;;;13.50;9.57;;;;;;;;;;4906527;28;20051;-79
2023/06/24 04:21:37;;;;;;;13.98;9.52;;;;;;;;;;4916871;28;20038;-79
2023/06/24 04:24:03;;;;;;;13.43;9.30;;;;;;;;;;4934503;28;20063;-79
2023/06/24 04:26:28;;;;;;;13.93;9.02;;;;;;;;;;4918315;28;20613;-81
2023/06/24 04:28:54;;;;;;;14.75;9.85;;;;;;;;;;4911303;28;20043;-80
2023/06/24 04:31:19;;;;;;;15.43;9.93;;;;;;;;;;4921505;29;20047;-80
2023/06/24 04:33:44;;;;;;;14.15;9.55;;;;;;;;;;4907310;28;20471;-80
2023/06/24 04:36:12;;;;;;;14.27;9.32;;;;;;;;;;4916247;28;20203;-80
2023/06/24 04:38:38;;;;;;;17.27;9.38;;;;;;;;;;4912088;28;20058;-81
2023/06/24 04:41:08;;;;;;;15.50;9.68;;;;;;;;;;4918385;28;20076;-80
2023/06/24 04:43:35;;;;;;;15.10;9.25;;;;;;;;;;4907770;28;20089;-80
2023/06/24 04:46:03;;;;;;;14.65;9.52;;;;;;;;;;4932733;28;20535;-80
2023/06/24 04:48:28;;;;;;;;;;;;;;;;;;4908604;28;20042;-81
2023/06/24 04:50:54;;;;;;;12.63;8.80;;;;;;;;;;4924804;28;19915;-80
2023/06/24 04:53:20;;;;;;;14.38;9.65;;;;;;;;;;4921490;29;20510;-81
2023/06/24 04:55:46;;;;;;;15.55;10.00;;;;;;;;;;4904766;29;20499;-80
2023/06/24 04:58:12;;;;;;;14.25;9.85;;;;;;;;;;4917274;28;20046;-80
2023/06/24 05:00:37;;;;;;;15.27;9.88;;;;;;;;;;4925093;28;20043;-80
2023/06/24 05:03:02;;;;;;;13.60;9.88;;;;;;;;;;4925662;28;20408;-80
2023/06/24 05:05:28;;;;;;;14.60;9.30;;;;;;;;;;4916805;28;20122;-81
2023/06/24 05:07:53;;;;;;;13.57;9.32;;;;;;;;;;4918485;28;20087;-80
2023/06/24 05:10:19;;;;;;;13.20;8.88;;;;;;;;;;4920636;28;20046;-81
2023/06/24 05:12:47;;;;;;;13.88;9.27;;;;;;;;;;4921805;28;20090;-81
2023/06/24 05:15:13;;;;;;;13.20;9.07;;;;;;;;;;4903456;28;20507;-81
2023/06/24 05:17:39;;;;;;;13.57;9.45;;;;;;;;;;4909756;28;20040;-81
2023/06/24 05:20:05;;;;;;;13.18;8.82;;;;;;;;;;4905312;29;20059;-80
2023/06/24 05:22:30;;;;;;;12.30;8.45;;;;;;;;;;4917178;28;20027;-81
2023/06/24 05:24:56;;;;;;;16.63;9.43;;;;;;;;;;4935500;28;20061;-81
2023/06/24 05:27:44;;;;;;;13.48;8.55;;;;;;;;;;4904721;28;20055;-80
2023/06/24 05:30:10;;;;;;;12.48;8.57;;;;;;;;;;4889693;29;20382;-81
2023/06/24 05:32:35;;;;;;;13.10;8.88;;;;;;;;;;4887950;29;20040;-81
2023/06/24 05:35:00;;;;;;;14.55;8.55;;;;;;;;;;4874355;29;20448;-80
2023/06/24 05:37:26;;;;;;;13.65;9.25;;;;;;;;;;4888496;29;20068;-81
2023/06/24 05:39:55;;;;;;;13.13;8.88;;;;;;;;;;4879432;29;20519;-81
2023/06/24 05:42:20;;;;;;;15.85;9.20;;;;;;;;;;4867572;29;20124;-81
2023/06/24 05:44:45;;;;;;;12.75;8.88;;;;;;;;;;4889414;29;20123;-81
2023/06/24 05:47:11;;;;;;;11.73;8.90;;;;;;;;;;4847945;29;20087;-81
2023/06/24 05:49:36;;;;;;;12.95;8.95;;;;;;;;;;4858234;29;20041;-81
2023/06/24 05:52:02;;;;;;;12.02;8.95;;;;;;;;;;4867770;29;20067;-81
2023/06/24 05:54:27;;;;;;;12.65;8.25;;;;;;;;;;4855278;29;20044;-80
2023/06/24 05:56:53;;;;;;;13.13;8.07;;;;;;;;;;4883862;29;20045;-81
2023/06/24 05:59:18;;;;;;;11.88;8.13;;;;;;;;;;4874659;29;20044;-81
2023/06/24 06:01:44;;;;;;;12.10;7.97;;;;;;;;;;4879065;29;20192;-81
2023/06/24 06:04:12;;;;;;;13.68;8.35;;;;;;;;;;4887178;29;20052;-82
2023/06/24 06:06:37;;;;;;;12.82;7.90;;;;;;;;;;4899374;28;20407;-81
2023/06/24 06:09:03;;;;;;;11.77;7.25;;;;;;;;;;4931521;28;20044;-81
2023/06/24 06:11:28;;;;;;;13.43;7.85;;;;;;;;;;4908828;28;20523;-81
2023/06/24 06:13:57;;;;;;;12.15;8.13;;;;;;;;;;4919534;28;20170;-81
2023/06/24 06:16:23;;;;;;;10.95;7.43;;;;;;;;;;4915168;28;20361;-81
2023/06/24 06:18:49;;;;;;;10.50;7.15;;;;;;;;;;4919778;29;20039;-80
2023/06/24 06:21:14;;;;;;;9.52;7.13;;;;;;;;;;4916540;28;20522;-80
2023/06/24 06:23:39;;;;;;;8.93;6.47;;;;;;;;;;4908546;28;20035;-80
2023/06/24 06:26:05;;;;;;;10.38;7.13;;;;;;;;;;4915783;28;20066;-79
2023/06/24 06:28:30;;;;;;;10.60;6.20;;;;;;;;;;4918916;28;20399;-80
2023/06/24 06:30:57;;;;;;;8.73;6.63;;;;;;;;;;4917052;28;20537;-81
2023/06/24 06:33:22;;;;;;;9.48;5.95;;;;;;;;;;4915546;28;20036;-80
2023/06/24 06:35:51;;;;;;;8.00;5.72;;;;;;;;;;4915196;29;20067;-80
2023/06/24 06:38:16;;;;;;;9.43;5.93;;;;;;;;;;4921892;28;20130;-80
2023/06/24 06:40:41;;;;;;;9.20;6.15;;;;;;;;;;4915366;28;20046;-80
2023/06/24 06:43:07;;;;;;;8.85;5.97;;;;;;;;;;4915969;28;20044;-80
2023/06/24 06:45:32;;;;;;;7.72;6.05;;;;;;;;;;4931281;28;20043;-80
2023/06/24 06:47:57;;;;;;;10.23;5.88;;;;;;;;;;4915130;28;20047;-80
2023/06/24 06:50:23;;;;;;;7.80;4.95;;;;;;;;;;4900879;29;20071;-81
2023/06/24 06:52:51;;;;;;;9.05;5.13;;;;;;;;;;4916526;28;20404;-80
2023/06/24 06:55:16;;;;;;;8.05;5.05;;;;;;;;;;4928536;28;20119;-80
2023/06/24 06:57:44;;;;;;;9.15;5.35;;;;;;;;;;4915364;28;20137;-82
2023/06/24 07:00:11;;;;;;;7.05;4.90;;;;;;;;;;4897864;28;20968;-81
2023/06/24 07:02:42;;;;;;;7.68;4.97;;;;;;;;;;4916153;28;20059;-81
2023/06/24 07:05:09;;;;;;;9.20;5.43;;;;;;;;;;4915650;28;20048;-81
2023/06/24 07:07:37;;;;;;;10.63;5.10;;;;;;;;;;4929996;28;20091;-81
2023/06/24 07:10:02;;;;;;;;;;;;;;;;;;4921739;28;20464;-81
2023/06/24 07:12:28;;;;;;;6.47;4.35;;;;;;;;;;4930212;29;19980;-81
2023/06/24 07:14:53;;;;;;;6.03;4.32;;;;;;;;;;4906109;28;20059;-81
2023/06/24 07:17:18;;;;;;;7.38;4.78;;;;;;;;;;4919128;29;20097;-80
2023/06/24 07:19:44;;;;;;;11.00;4.22;;;;;;;;;;4913403;28;20068;-81
2023/06/24 07:22:09;;;;;;;5.80;4.03;;;;;;;;;;4916883;28;20046;-81
2023/06/24 07:24:34;;;;;;;9.00;4.53;;;;;;;;;;4920016;28;20044;-81
2023/06/24 07:27:00;;;;;;;6.18;4.20;;;;;;;;;;4915360;28;20488;-81
2023/06/24 07:29:28;;;;;;;7.30;4.40;;;;;;;;;;4912916;28;20044;-81
2023/06/24 07:31:53;;;;;;;5.80;3.65;;;;;;;;;;4914698;28;20106;-82
2023/06/24 07:34:21;;;;;;;6.13;4.10;;;;;;;;;;4912574;28;20039;-81
2023/06/24 07:36:47;;;;;;;7.72;3.75;;;;;;;;;;4912283;29;20411;-81
2023/06/24 07:39:12;;;;;;;6.60;4.10;;;;;;;;;;4917691;28;20040;-81
2023/06/24 07:41:38;;;;;;;4.80;3.25;;;;;;;;;;4910796;28;20067;-80
2023/06/24 07:44:04;;;;;;;6.22;3.90;;;;;;;;;;4924921;28;20458;-81
2023/06/24 07:46:29;;;;;;;7.25;3.90;;;;;;;;;;4918054;28;20046;-81
2023/06/24 07:48:55;;;;;;;7.80;3.90;;;;;;;;;;4918529;28;20090;-81
2023/06/24 07:51:20;;;;;;;8.18;4.10;;;;;;;;;;4917200;29;20031;-81
2023/06/24 07:53:46;;;;;;;5.13;3.38;;;;;;;;;;4908351;28;20407;-81
2023/06/24 07:56:13;;;;;;;7.18;3.80;;;;;;;;;;4899420;28;20039;-80
2023/06/24 07:58:38;;;;;;;;;;;;;;;;;;4920911;28;20050;-81
2023/06/24 08:01:06;;;;;;;4.75;3.35;;;;;;;;;;4920607;28;19918;-81
2023/06/24 08:03:32;;;;;;;5.28;3.15;;;;;;;;;;4918680;28;20127;-81
2023/06/24 08:05:57;;;;;;;5.25;3.45;;;;;;;;;;4933503;28;20118;-81
2023/06/24 08:08:24;;;;;;;5.22;3.58;;;;;;;;;;4897459;28;20079;-82
2023/06/24 08:10:50;;;;;;;7.93;3.47;;;;;;;;;;4915051;29;20063;-81
2023/06/24 08:13:15;;;;;;;6.15;3.72;;;;;;;;;;4916986;29;20466;-81
2023/06/24 08:15:41;;;;;;;7.18;3.25;;;;;;;;;;4917691;28;20039;-81
2023/06/24 08:18:06;;;;;;;10.15;4.03;;;;;;;;;;4931118;28;20131;-81
2023/06/24 08:20:32;;;;;;;5.78;3.50;;;;;;;;;;4921341;28;20036;-81
2023/06/24 08:22:57;;;;;;;5.45;3.47;;;;;;;;;;4913168;28;20134;-81
2023/06/24 08:25:22;;;;;;;9.32;3.70;;;;;;;;;;4932568;28;20043;-81
2023/06/24 08:27:48;;;;;;;7.65;3.83;;;;;;;;;;4935171;29;20047;-81
2023/06/24 08:30:15;;;;;;;6.55;3.92;;;;;;;;;;4915302;28;20066;-81
2023/06/24 08:32:40;;;;;;;6.45;3.72;;;;;;;;;;4913880;28;20143;-81
2023/06/24 08:35:07;;;;;;;6.13;3.53;;;;;;;;;;4920383;28;20051;-82
2023/06/24 08:37:36;;;;;;;6.23;3.60;;;;;;;;;;4915109;28;20031;-81
2023/06/24 08:40:04;;;;;;;4.68;3.28;;;;;;;;;;4918197;28;20059;-81
2023/06/24 08:42:32;;;;;;;5.70;3.40;;;;;;;;;;4925336;28;20036;-81
2023/06/24 08:44:58;;;;;;;6.18;3.30;;;;;;;;;;4916592;28;20468;-81
2023/06/24 08:47:29;;;;;;;7.43;3.20;;;;;;;;;;4916845;28;20091;-82
2023/06/24 08:50:05;;;;;;;5.72;3.00;;;;;;;;;;4894927;28;20154;-81
2023/06/24 08:52:36;;;;;;;6.22;3.58;;;;;;;;;;4905540;28;20071;-81
2023/06/24 08:55:02;;;;;;;4.68;2.75;;;;;;;;;;4948832;28;20516;-81
2023/06/24 08:57:28;;;;;;;5.32;2.80;;;;;;;;;;4901883;28;20040;-82
2023/06/24 08:59:53;;;;;;;4.38;2.65;;;;;;;;;;4922351;28;20035;-82
2023/06/24 09:02:19;;;;;;;4.47;2.55;;;;;;;;;;4915357;29;20094;-81
2023/06/24 09:04:45;;;;;;;5.00;2.70;;;;;;;;;;4931678;28;20188;-82
2023/06/24 09:07:11;;;;;;;4.70;2.88;;;;;;;;;;4923652;28;20040;-82
2023/06/24 09:09:46;;;;;;;4.10;2.50;;;;;;;;;;4917173;28;20135;-82
2023/06/24 09:12:13;;;;;;;4.07;2.20;;;;;;;;;;4931713;28;20163;-82
2023/06/24 09:14:40;;;;;;;5.07;2.63;;;;;;;;;;4914448;28;20084;-82
2023/06/24 09:17:06;;;;;;;4.50;2.83;;;;;;;;;;4931518;28;20039;-81
2023/06/24 09:19:36;;;;;;;5.20;2.60;;;;;;;;;;4932975;28;20422;-80
2023/06/24 09:22:08;;;;;;;6.45;2.53;;;;;;;;;;4908607;28;20039;-82
2023/06/24 09:24:35;;;;;;;4.05;2.30;;;;;;;;;;4933303;28;20119;-82
2023/06/24 09:27:01;;;;;;;3.87;2.27;;;;;;;;;;4935903;28;20409;-81
2023/06/24 09:29:32;;;;;;;2.90;1.80;;;;;;;;;;4903344;28;20862;-81
2023/06/24 09:31:59;;;;;;;3.42;1.90;;;;;;;;;;4911248;28;20529;-82
2023/06/24 09:34:25;;;;;;;3.70;1.73;;;;;;;;;;4926957;28;20035;-82
2023/06/24 09:36:56;;;;;;;4.15;2.22;;;;;;;;;;4917092;29;20455;-82
2023/06/24 09:39:28;;;;;;;3.58;1.98;;;;;;;;;;4915986;29;20050;-80
2023/06/24 09:41:54;;;;;;;4.15;2.10;;;;;;;;;;4929469;28;20040;-81
2023/06/24 09:44:22;;;;;;;4.97;2.22;;;;;;;;;;4917557;29;20090;-82
2023/06/24 09:46:47;;;;;;;3.60;1.98;;;;;;;;;;4908596;29;20116;-82
2023/06/24 09:49:13;;;;;;;3.67;1.63;;;;;;;;;;4918812;29;20679;-82
2023/06/24 09:51:41;;;;;;;4.90;1.70;;;;;;;;;;4933783;28;20039;-82
2023/06/24 09:54:06;;;;;;;3.67;1.50;;;;;;;;;;4932173;28;20043;-82
2023/06/24 09:56:37;;;;;;;3.47;1.60;;;;;;;;;;4896906;28;20046;-81
2023/06/24 09:59:04;;;;;;;4.28;1.63;;;;;;;;;;4905339;28;20039;-82
2023/06/24 10:01:32;;;;;;;5.75;1.63;;;;;;;;;;4918491;28;20071;-82
2023/06/24 10:03:58;;;;;;;3.47;1.70;;;;;;;;;;4896247;28;20134;-82
2023/06/24 10:06:25;;;;;;;4.17;1.53;;;;;;;;;;4917630;28;20035;-82
2023/06/24 10:08:50;;;;;;;4.65;1.70;;;;;;;;;;4931495;28;20283;-82
2023/06/24 10:11:15;;;;;;;3.50;1.38;;;;;;;;;;4902373;28;20075;-81
2023/06/24 10:13:41;;;;;;;5.55;1.70;;;;;;;;;;4916830;28;20062;-80
2023/06/24 10:16:08;;;;;;;4.05;1.80;;;;;;;;;;4919030;28;20123;-81
2023/06/24 10:18:35;;;;;;;2.90;1.63;;;;;;;;;;4930879;28;20526;-81
2023/06/24 10:21:02;;;;;;;;;;;;;;;;;;4916256;28;20044;-81
2023/06/24 10:23:40;;;;;;;3.97;1.48;;;;;;;;;;4915416;28;19977;-82
2023/06/24 10:26:28;;;;;;;3.25;1.52;;;;;;;;;;4931820;28;20574;-82
2023/06/24 10:29:06;;;;;;;3.97;1.77;;;;;;;;;;4915389;28;20499;-82
2023/06/24 10:31:40;;;;;;;3.85;1.38;;;;;;;;;;4917497;28;20122;-81
2023/06/24 10:34:54;;;;;;;5.90;1.50;;;;;;;;;;4918007;28;20067;-82
2023/06/24 10:37:20;;;;;;;2.80;1.60;;;;;;;;;;4920143;28;20511;-82
2023/06/24 10:39:57;;;;;;;4.63;1.77;;;;;;;;;;4916067;28;20047;-82
2023/06/24 10:42:28;;;;;;;;;;;;;;;;;;4914385;29;20516;-82
2023/06/24 10:44:58;;;;;;;2.85;1.60;;;;;;;;;;4917508;28;19960;-82
2023/06/24 10:47:25;;;;;;;3.78;1.63;;;;;;;;;;4911320;28;20578;-82
2023/06/24 10:49:51;;;;;;;2.60;1.42;;;;;;;;;;4910241;29;20123;-82
2023/06/24 10:52:19;;;;;;;3.20;1.63;;;;;;;;;;4915647;29;20127;-82
2023/06/24 10:54:44;;;;;;;3.78;1.58;;;;;;;;;;4930920;28;20047;-81
2023/06/24 10:57:11;;;;;;;4.03;1.50;;;;;;;;;;4916131;28;20495;-82
2023/06/24 10:59:42;;;;;;;6.50;1.55;;;;;;;;;;4928485;29;20487;-82
2023/06/24 11:02:09;;;;;;;3.00;1.40;;;;;;;;;;4912647;28;20031;-82
2023/06/24 11:04:45;;;;;;;3.00;1.40;;;;;;;;;;4907716;28;20075;-83
2023/06/24 11:07:11;;;;;;;3.30;1.60;;;;;;;;;;4916073;28;20040;-83
2023/06/24 11:09:37;;;;;;;5.93;1.90;;;;;;;;;;4936521;28;20163;-82
2023/06/24 11:12:03;;;;;;;3.17;1.40;;;;;;;;;;4901673;28;20043;-82
2023/06/24 11:14:29;;;;;;;5.63;1.75;;;;;;;;;;4914373;28;20369;-82
2023/06/24 11:16:54;;;;;;;3.55;2.17;;;;;;;;;;4912082;28;20067;-82
2023/06/24 11:19:20;;;;;;;3.38;1.80;;;;;;;;;;4922152;29;20133;-82
2023/06/24 11:21:45;;;;;;;3.23;1.53;;;;;;;;;;4903991;29;20084;-83
2023/06/24 11:24:11;;;;;;;3.60;1.50;;;;;;;;;;4919451;28;20039;-81
2023/06/24 11:26:36;;;;;;;3.57;1.63;;;;;;;;;;4913812;28;20424;-81
2023/06/24 11:29:11;;;;;;;3.13;1.67;;;;;;;;;;4934909;28;20063;-83
2023/06/24 11:31:37;;;;;;;3.20;1.63;;;;;;;;;;4919482;28;20192;-81
2023/06/24 11:34:11;;;;;;;2.70;1.50;;;;;;;;;;4915739;28;20035;-82
2023/06/24 11:36:37;;;;;;;3.78;1.38;;;;;;;;;;4922576;28;20124;-81
2023/06/24 11:39:03;;;;;;;2.90;1.50;;;;;;;;;;4921245;28;20060;-82
2023/06/24 11:41:28;;;;;;;3.93;1.50;;;;;;;;;;4907941;28;20090;-82
2023/06/24 11:43:54;;;;;;;3.03;1.60;;;;;;;;;;4923060;28;20510;-82
2023/06/24 11:46:35;;;;;;;2.47;1.40;;;;;;;;;;4916703;28;20364;-82
2023/06/24 11:49:07;;;;;;;3.17;1.60;;;;;;;;;;4934031;28;20035;-82
2023/06/24 11:51:33;;;;;;;3.28;1.80;;;;;;;;;;4924832;28;20082;-80
2023/06/24 11:54:01;;;;;;;3.75;1.90;;;;;;;;;;4918966;28;20419;-82
2023/06/24 11:56:36;;;;;;;2.85;1.80;;;;;;;;;;4916920;28;20047;-82
2023/06/24 11:59:04;;;;;;;4.60;1.52;;;;;;;;;;4910910;29;20035;-81
2023/06/24 12:01:31;;;;;;;3.67;1.77;;;;;;;;;;4916756;28;20031;-81
2023/06/24 12:03:56;;;;;;;;;;;;;;;;;;4903162;29;20540;-82
2023/06/24 12:06:22;;;;;;;3.20;1.77;;;;;;;;;;4922601;28;19937;-82
2023/06/24 12:08:47;;;;;;;3.45;2.00;;;;;;;;;;4921996;29;20036;-81
2023/06/24 12:11:13;;;;;;;3.78;1.65;;;;;;;;;;4915788;28;20040;-81
2023/06/24 12:13:38;;;;;;;3.22;2.10;;;;;;;;;;4917909;28;20153;-81
2023/06/24 12:16:04;;;;;;;3.72;2.40;;;;;;;;;;4920303;28;20039;-81
2023/06/24 12:18:29;;;;;;;3.58;2.10;;;;;;;;;;4932395;28;20028;-82
2023/06/24 12:20:55;;;;;;;4.07;2.00;;;;;;;;;;4915735;28;20032;-81
2023/06/24 12:23:21;;;;;;;3.20;1.80;;;;;;;;;;4934449;28;20385;-81
2023/06/24 12:25:46;;;;;;;2.90;1.67;;;;;;;;;;4924718;28;20054;-82
2023/06/24 12:28:17;;;;;;;3.50;1.63;;;;;;;;;;4911165;28;20075;-82
2023/06/24 12:30:43;;;;;;;2.60;1.40;;;;;;;;;;4920844;28;20035;-83
2023/06/24 12:33:08;;;;;;;3.05;1.70;;;;;;;;;;4919799;28;20491;-82
2023/06/24 12:35:34;;;;;;;3.13;1.73;;;;;;;;;;4916761;28;20047;-82
2023/06/24 12:37:59;;;;;;;3.00;1.80;;;;;;;;;;4915402;28;20050;-81
2023/06/24 12:40:24;;;;;;;3.78;2.20;;;;;;;;;;4914649;28;20094;-80
2023/06/24 12:42:50;;;;;;;3.20;1.80;;;;;;;;;;4912128;29;20032;-81
2023/06/24 12:45:15;;;;;;;3.85;2.25;;;;;;;;;;4931421;28;20139;-81
2023/06/24 12:47:41;;;;;;;3.83;1.92;;;;;;;;;;4911781;28;20063;-81
2023/06/24 12:50:07;;;;;;;4.03;2.03;;;;;;;;;;4922737;28;20043;-81
2023/06/24 12:52:33;;;;;;;3.90;2.30;;;;;;;;;;4932330;28;20094;-81
2023/06/24 12:54:59;;;;;;;3.80;2.15;;;;;;;;;;4918880;28;20194;-82
2023/06/24 12:57:24;;;;;;;5.60;2.38;;;;;;;;;;4902140;28;20544;-81
2023/06/24 12:59:50;;;;;;;5.90;2.67;;;;;;;;;;4916672;29;20492;-82
2023/06/24 13:02:15;;;;;;;4.45;2.35;;;;;;;;;;4903280;28;20171;-82
2023/06/24 13:04:41;;;;;;;4.75;2.38;;;;;;;;;;4915361;28;20078;-82
2023/06/24 13:07:07;;;;;;;4.43;2.50;;;;;;;;;;4921030;28;20043;-82
2023/06/24 13:09:32;;;;;;;4.28;2.55;;;;;;;;;;4918840;28;20074;-82
2023/06/24 13:11:58;;;;;;;4.32;2.50;;;;;;;;;;4927225;28;20470;-82
2023/06/24 13:14:26;;;;;;;5.03;2.30;;;;;;;;;;4918627;28;20508;-82
2023/06/24 13:16:52;;;;;;;4.72;2.75;;;;;;;;;;4912905;29;20541;-82
2023/06/24 13:19:20;;;;;;;4.40;2.60;;;;;;;;;;4918647;28;20039;-82
2023/06/24 13:21:46;;;;;;;4.15;2.25;;;;;;;;;;4923578;29;20048;-82
2023/06/24 13:24:12;;;;;;;4.35;2.53;;;;;;;;;;4906123;28;20498;-82
2023/06/24 13:26:38;;;;;;;4.68;2.28;;;;;;;;;;4915936;28;20031;-82
2023/06/24 13:29:03;;;;;;;3.40;1.98;;;;;;;;;;4916366;28;20071;-83
2023/06/24 13:31:29;;;;;;;3.58;2.08;;;;;;;;;;4916673;28;20066;-82
2023/06/24 13:33:54;;;;;;;3.25;1.80;;;;;;;;;;4918634;28;20055;-82
2023/06/24 13:36:35;;;;;;;3.67;1.98;;;;;;;;;;4918666;29;20073;-82
2023/06/24 13:39:02;;;;;;;4.47;1.98;;;;;;;;;;4916704;28;20496;-82
2023/06/24 13:41:30;;;;;;;3.78;1.67;;;;;;;;;;4929653;28;20024;-82
2023/06/24 13:43:56;;;;;;;3.05;1.98;;;;;;;;;;4916080;28;20446;-82
2023/06/24 13:46:22;;;;;;;3.95;2.05;;;;;;;;;;4916357;29;20094;-83
2023/06/24 13:48:49;;;;;;;4.90;1.95;;;;;;;;;;4932187;28;20763;-82
2023/06/24 13:51:16;;;;;;;4.22;2.10;;;;;;;;;;4914062;29;20131;-83
2023/06/24 13:53:41;;;;;;;3.95;2.28;;;;;;;;;;4934324;28;20531;-82
2023/06/24 13:56:07;;;;;;;4.43;2.20;;;;;;;;;;4906909;29;20031;-82
2023/06/24 13:58:33;;;;;;;3.42;2.05;;;;;;;;;;4906934;28;20122;-82
2023/06/24 14:00:58;;;;;;;4.57;2.17;;;;;;;;;;4929935;28;20082;-83
2023/06/24 14:03:24;;;;;;;4.53;1.90;;;;;;;;;;4919421;28;20044;-82
2023/06/24 14:05:49;;;;;;;3.90;2.13;;;;;;;;;;4915011;29;20036;-83
2023/06/24 14:08:14;;;;;;;3.63;1.98;;;;;;;;;;4914389;28;20035;-83
2023/06/24 14:10:40;;;;;;;4.53;1.98;;;;;;;;;;4917812;29;20069;-82
2023/06/24 14:13:05;;;;;;;3.55;2.10;;;;;;;;;;4913725;28;20039;-82
2023/06/24 14:15:31;;;;;;;4.70;2.10;;;;;;;;;;4914233;28;20399;-82
2023/06/24 14:17:56;;;;;;;4.18;2.25;;;;;;;;;;4914880;28;20042;-82
2023/06/24 14:20:24;;;;;;;3.47;1.90;;;;;;;;;;4912353;28;20488;-82
2023/06/24 14:22:50;;;;;;;3.42;2.10;;;;;;;;;;4931308;29;20140;-83
2023/06/24 14:25:15;;;;;;;3.50;1.90;;;;;;;;;;4917199;28;20086;-82
2023/06/24 14:27:41;;;;;;;5.15;2.50;;;;;;;;;;4916508;28;20147;-82
2023/06/24 14:30:07;;;;;;;4.57;2.50;;;;;;;;;;4930128;28;20040;-82
2023/06/24 14:32:32;;;;;;;4.78;2.47;;;;;;;;;;4931014;28;20038;-82
2023/06/24 14:34:58;;;;;;;5.40;2.35;;;;;;;;;;4915425;28;20043;-82
2023/06/24 14:37:23;;;;;;;3.85;2.30;;;;;;;;;;4896653;29;20050;-82